Time;durP1;ratioP1;P1;durP2;ratioP2;P2;SDS_P1;SDS_P2;PMS_P1;PMS_P2;Temp;Humidity;BMP_temperature;BMP_pressure;BME280_temperature;BME280_humidity;BME280_pressure;Samples;Min_cycle;Max_cycle;Signal;HPM_P1;HPM_P2
2021/12/27 00:00:32;;;;;;;23.70;13.48;;;-0.20;99.90;;;;;;5093943;28;20200;-70
2021/12/27 00:03:00;;;;;;;23.08;13.05;;;-0.20;99.90;;;;;;5093939;28;20051;-70
2021/12/27 00:05:26;;;;;;;22.02;12.85;;;-0.30;99.90;;;;;;5092393;28;20040;-71
2021/12/27 00:07:54;;;;;;;21.60;12.75;;;-0.30;99.90;;;;;;5093531;28;20055;-70
2021/12/27 00:10:21;;;;;;;21.45;12.93;;;-0.40;99.90;;;;;;5093566;28;20055;-70
2021/12/27 00:12:47;;;;;;;19.73;12.13;;;-0.40;99.90;;;;;;5093814;28;20032;-70
2021/12/27 00:15:15;;;;;;;20.02;12.02;;;-0.50;99.90;;;;;;5093539;28;20492;-70
2021/12/27 00:17:42;;;;;;;20.80;12.75;;;-0.50;99.90;;;;;;5093052;28;20114;-71
2021/12/27 00:20:10;;;;;;;22.80;12.60;;;-0.50;99.90;;;;;;5093524;28;20139;-70
2021/12/27 00:22:37;;;;;;;23.75;13.73;;;-0.60;99.90;;;;;;5093163;28;20563;-70
2021/12/27 00:25:04;;;;;;;19.48;11.57;;;-0.60;99.90;;;;;;5093586;28;20400;-70
2021/12/27 00:27:29;;;;;;;20.85;13.07;;;-0.70;99.90;;;;;;5091522;28;20048;-70
2021/12/27 00:29:55;;;;;;;20.23;12.25;;;-0.60;99.90;;;;;;5093247;28;20059;-70
2021/12/27 00:32:21;;;;;;;21.15;12.05;;;-0.60;99.90;;;;;;5093781;28;20040;-70
2021/12/27 00:34:46;;;;;;;17.73;11.63;;;-0.60;99.90;;;;;;5093736;28;20044;-71
2021/12/27 00:37:12;;;;;;;18.80;13.05;;;-0.70;99.90;;;;;;5092602;28;20044;-71
2021/12/27 00:39:39;;;;;;;19.05;13.48;;;-0.60;99.90;;;;;;5093483;28;20040;-71
2021/12/27 00:42:05;;;;;;;23.00;13.00;;;-0.70;99.90;;;;;;5092250;28;20084;-71
2021/12/27 00:44:31;;;;;;;18.25;12.05;;;-0.60;99.90;;;;;;5093156;28;20119;-70
2021/12/27 00:46:57;;;;;;;20.23;12.68;;;-0.70;99.90;;;;;;5092614;28;20476;-71
2021/12/27 00:49:23;;;;;;;18.70;12.48;;;-0.70;99.90;;;;;;5093015;28;20044;-71
2021/12/27 00:51:48;;;;;;;24.17;14.05;;;-0.70;99.90;;;;;;5093155;28;20046;-71
2021/12/27 00:54:15;;;;;;;23.52;14.10;;;-0.70;99.90;;;;;;5092001;28;20036;-69
2021/12/27 00:56:41;;;;;;;20.27;12.45;;;-0.70;99.90;;;;;;5091616;28;20460;-70
2021/12/27 00:59:07;;;;;;;19.27;12.43;;;-0.70;99.90;;;;;;5093120;28;20036;-70
2021/12/27 01:01:32;;;;;;;22.85;14.60;;;-0.80;99.90;;;;;;5092938;28;20070;-70
2021/12/27 01:03:59;;;;;;;24.13;12.77;;;-0.70;99.90;;;;;;5093303;28;20040;-69
2021/12/27 01:06:25;;;;;;;23.65;13.93;;;-0.60;99.90;;;;;;5074524;28;20473;-70
2021/12/27 01:08:52;;;;;;;21.23;13.18;;;-0.70;99.90;;;;;;5074821;28;20492;-70
2021/12/27 01:14:16;;;;;;;22.23;13.55;;;-0.80;99.90;;;;;;5060078;28;20044;-69
2021/12/27 01:16:44;;;;;;;21.42;13.32;;;-0.60;99.90;;;;;;5096914;28;20055;-70
2021/12/27 01:19:10;;;;;;;23.85;14.32;;;-0.60;99.90;;;;;;5096797;28;20032;-70
2021/12/27 01:21:35;;;;;;;21.63;14.38;;;-0.60;99.90;;;;;;5096722;28;20552;-70
2021/12/27 01:24:03;;;;;;;22.73;12.82;;;-0.50;99.90;;;;;;5097033;28;20043;-70
2021/12/27 01:26:29;;;;;;;23.63;13.45;;;-0.60;99.90;;;;;;5095120;28;20047;-70
2021/12/27 01:29:00;;;;;;;23.70;13.73;;;-0.60;99.90;;;;;;5095290;28;20043;-70
2021/12/27 01:31:26;;;;;;;22.90;13.35;;;-0.60;99.90;;;;;;5078510;28;20047;-70
2021/12/27 01:33:52;;;;;;;19.27;11.98;;;-0.50;99.90;;;;;;5095127;28;20556;-70
2021/12/27 01:36:18;;;;;;;21.98;13.15;;;-0.50;99.90;;;;;;5096061;28;20044;-70
2021/12/27 01:38:47;;;;;;;21.60;14.10;;;-0.50;99.90;;;;;;5094923;28;20046;-70
2021/12/27 01:41:15;;;;;;;26.38;14.88;;;-0.50;99.90;;;;;;5096232;28;20090;-70
2021/12/27 01:43:41;;;;;;;21.80;14.15;;;-0.60;99.90;;;;;;5095156;28;20089;-70
2021/12/27 01:46:13;;;;;;;21.38;13.95;;;-0.50;99.90;;;;;;5094475;28;20115;-70
2021/12/27 01:48:41;;;;;;;21.73;13.85;;;-0.50;99.90;;;;;;5094792;28;20043;-70
2021/12/27 01:51:10;;;;;;;24.10;14.35;;;-0.50;99.90;;;;;;5096209;28;20040;-70
2021/12/27 01:53:37;;;;;;;22.42;13.95;;;-0.40;99.90;;;;;;5094830;28;20051;-70
2021/12/27 01:56:05;;;;;;;23.40;13.98;;;-0.50;99.90;;;;;;5095599;28;20051;-70
2021/12/27 01:58:31;;;;;;;23.83;13.82;;;-0.50;99.90;;;;;;5094778;28;20040;-70
2021/12/27 02:01:00;;;;;;;22.88;14.10;;;-0.40;99.90;;;;;;5094847;28;20063;-70
2021/12/27 02:03:28;;;;;;;20.65;13.15;;;-0.40;99.90;;;;;;5096221;28;20128;-70
2021/12/27 02:05:54;;;;;;;22.60;14.77;;;-0.40;99.90;;;;;;5095889;28;20043;-70
2021/12/27 02:08:20;;;;;;;24.38;14.38;;;-0.50;99.90;;;;;;5077845;28;20044;-70
2021/12/27 02:10:46;;;;;;;22.67;14.32;;;-0.50;99.90;;;;;;5094681;28;20043;-70
2021/12/27 02:13:12;;;;;;;22.25;13.80;;;-0.50;99.90;;;;;;5096062;28;20044;-70
2021/12/27 02:15:38;;;;;;;24.90;14.57;;;-0.40;99.90;;;;;;5095895;28;20497;-70
2021/12/27 02:18:05;;;;;;;22.27;13.48;;;-0.40;99.90;;;;;;5095797;28;20065;-70
2021/12/27 02:20:33;;;;;;;22.70;14.05;;;-0.30;99.90;;;;;;5096061;28;20047;-71
2021/12/27 02:23:02;;;;;;;21.58;13.63;;;-0.40;99.90;;;;;;5095448;28;20048;-70
2021/12/27 02:25:33;;;;;;;24.85;14.32;;;-0.30;99.90;;;;;;5094279;28;20081;-71
2021/12/27 02:28:02;;;;;;;22.83;14.75;;;-0.40;99.90;;;;;;5095807;28;20048;-70
2021/12/27 02:30:30;;;;;;;28.25;16.90;;;-0.30;99.90;;;;;;5095806;28;20048;-70
2021/12/27 02:32:59;;;;;;;26.58;15.48;;;-0.30;99.90;;;;;;5095148;28;20039;-70
2021/12/27 02:35:30;;;;;;;26.15;16.17;;;-0.30;99.90;;;;;;5093774;28;20036;-69
2021/12/27 02:37:58;;;;;;;27.10;15.48;;;-0.30;99.90;;;;;;5093758;28;20541;-70
2021/12/27 02:40:27;;;;;;;24.90;15.55;;;-0.40;99.90;;;;;;5094264;28;20100;-70
2021/12/27 02:42:57;;;;;;;25.58;14.80;;;-0.40;99.90;;;;;;5095448;28;20119;-70
2021/12/27 02:45:23;;;;;;;25.65;14.90;;;-0.50;99.90;;;;;;5095486;28;20043;-70
2021/12/27 02:47:49;;;;;;;25.55;15.70;;;-0.30;99.90;;;;;;5095114;28;20047;-70
2021/12/27 02:50:15;;;;;;;28.17;16.10;;;-0.30;99.90;;;;;;5094890;28;20036;-70
2021/12/27 02:52:41;;;;;;;24.98;15.45;;;-0.30;99.90;;;;;;5095256;28;20068;-70
2021/12/27 02:55:07;;;;;;;26.15;17.55;;;-0.30;99.90;;;;;;5094649;28;20165;-70
2021/12/27 02:57:32;;;;;;;24.95;16.02;;;-0.30;99.90;;;;;;5094309;28;20119;-69
2021/12/27 03:00:00;;;;;;;28.00;16.60;;;-0.40;99.90;;;;;;5094849;28;20047;-69
2021/12/27 03:02:26;;;;;;;26.67;15.60;;;-0.40;99.90;;;;;;5094812;28;20118;-70
2021/12/27 03:04:52;;;;;;;24.05;15.13;;;-0.40;99.90;;;;;;5093322;28;20048;-69
2021/12/27 03:07:17;;;;;;;24.52;14.45;;;-0.40;99.90;;;;;;5092889;28;20055;-70
2021/12/27 03:09:43;;;;;;;22.83;14.65;;;-0.30;99.90;;;;;;5094488;28;20369;-70
2021/12/27 03:12:12;;;;;;;25.52;14.98;;;-0.20;99.90;;;;;;5094677;28;20036;-70
2021/12/27 03:14:38;;;;;;;27.85;15.02;;;-0.30;99.90;;;;;;5094385;28;20620;-70
2021/12/27 03:17:06;;;;;;;26.35;15.85;;;-0.20;99.90;;;;;;5094060;28;20044;-70
2021/12/27 03:19:31;;;;;;;26.80;15.93;;;-0.20;99.90;;;;;;5093077;28;20074;-70
2021/12/27 03:21:57;;;;;;;23.45;15.07;;;-0.20;99.90;;;;;;5093205;28;20426;-69
2021/12/27 03:24:22;;;;;;;24.40;15.00;;;-0.10;99.90;;;;;;5094770;28;20418;-69
2021/12/27 03:26:49;;;;;;;24.75;15.77;;;-0.20;99.90;;;;;;5092438;28;20051;-70
2021/12/27 03:29:15;;;;;;;24.48;16.05;;;-0.20;99.90;;;;;;5094338;28;20043;-70
2021/12/27 03:31:40;;;;;;;23.75;14.90;;;0.00;99.90;;;;;;5094144;28;20036;-70
2021/12/27 03:34:06;;;;;;;25.15;15.18;;;-0.10;99.90;;;;;;5093575;28;20497;-70
2021/12/27 03:36:39;;;;;;;23.80;14.73;;;-0.10;99.90;;;;;;5093892;28;20039;-70
2021/12/27 03:39:09;;;;;;;26.55;16.58;;;-0.20;99.90;;;;;;5092616;28;20070;-70
2021/12/27 03:41:37;;;;;;;26.55;16.65;;;-0.20;99.90;;;;;;5094297;28;20063;-70
2021/12/27 03:44:03;;;;;;;25.20;15.07;;;-0.20;99.90;;;;;;5094022;28;20040;-70
2021/12/27 03:46:29;;;;;;;25.40;15.52;;;-0.10;99.90;;;;;;5093907;28;20131;-69
2021/12/27 03:48:55;;;;;;;27.40;17.08;;;-0.10;99.90;;;;;;5093762;28;20039;-70
2021/12/27 03:51:21;;;;;;;27.20;16.65;;;0.00;99.90;;;;;;5092692;28;20044;-70
2021/12/27 03:53:47;;;;;;;26.38;16.50;;;0.00;99.90;;;;;;5093273;28;20357;-70
2021/12/27 03:56:12;;;;;;;23.88;15.23;;;0.00;99.90;;;;;;5093667;28;20488;-70
2021/12/27 03:58:55;;;;;;;27.75;17.70;;;-0.10;99.90;;;;;;5093401;28;20032;-70
2021/12/27 04:01:21;;;;;;;29.70;16.92;;;-0.10;99.90;;;;;;5094049;28;20044;-69
2021/12/27 04:03:55;;;;;;;27.55;16.60;;;-0.10;99.90;;;;;;5093697;28;20036;-70
2021/12/27 04:06:22;;;;;;;;;;;-0.10;99.90;;;;;;5092274;28;20504;-71
2021/12/27 04:08:48;;;;;;;29.02;16.88;;;0.00;99.90;;;;;;5093694;28;19916;-70
2021/12/27 04:11:14;;;;;;;26.73;17.27;;;-0.10;99.90;;;;;;5093729;28;20457;-70
2021/12/27 04:13:41;;;;;;;25.65;16.55;;;-0.10;99.90;;;;;;5093447;28;20541;-70
2021/12/27 04:16:06;;;;;;;29.13;17.73;;;-0.10;99.90;;;;;;5093293;28;20063;-70
2021/12/27 04:18:32;;;;;;;28.42;17.10;;;-0.10;99.90;;;;;;5093884;28;20075;-70
2021/12/27 04:20:58;;;;;;;24.92;16.00;;;-0.10;99.90;;;;;;5093374;28;20486;-70
2021/12/27 04:23:24;;;;;;;26.50;16.35;;;-0.10;99.90;;;;;;5092272;28;20156;-70
2021/12/27 04:25:50;;;;;;;26.45;16.40;;;0.00;99.90;;;;;;5093205;28;20476;-70
2021/12/27 04:28:17;;;;;;;30.08;16.67;;;0.00;99.90;;;;;;5093506;28;20436;-70
2021/12/27 04:30:43;;;;;;;23.85;15.48;;;0.00;99.90;;;;;;5092355;28;20462;-70
2021/12/27 04:33:08;;;;;;;27.85;16.13;;;0.00;99.90;;;;;;5093268;28;20051;-70
2021/12/27 04:35:35;;;;;;;25.67;17.58;;;0.10;99.90;;;;;;5093471;28;20032;-71
2021/12/27 04:38:00;;;;;;;28.05;17.80;;;0.10;99.90;;;;;;5093033;28;20032;-70
2021/12/27 04:40:28;;;;;;;27.15;16.55;;;0.10;99.90;;;;;;5092304;28;20077;-70
2021/12/27 04:42:59;;;;;;;25.63;16.42;;;0.20;99.90;;;;;;5093162;28;20063;-70
2021/12/27 04:45:25;;;;;;;27.88;16.77;;;0.20;99.90;;;;;;5094318;28;20089;-70
2021/12/27 04:47:50;;;;;;;25.25;16.55;;;0.20;99.90;;;;;;5097236;28;20450;-70
2021/12/27 04:50:16;;;;;;;26.35;16.63;;;0.20;99.90;;;;;;5079083;28;20067;-70
2021/12/27 04:52:42;;;;;;;28.77;17.02;;;0.20;99.90;;;;;;5097425;28;20040;-70
2021/12/27 04:55:08;;;;;;;28.83;17.67;;;0.20;99.90;;;;;;5097228;28;20039;-70
2021/12/27 04:57:34;;;;;;;25.02;17.00;;;0.30;99.90;;;;;;5095894;28;20089;-70
2021/12/27 05:00:00;;;;;;;28.35;17.23;;;0.20;99.90;;;;;;5095939;28;20400;-70
2021/12/27 05:02:27;;;;;;;27.38;17.23;;;0.20;99.90;;;;;;5097648;28;20040;-70
2021/12/27 05:04:53;;;;;;;25.90;16.27;;;0.30;99.90;;;;;;5097272;28;20472;-70
2021/12/27 05:07:19;;;;;;;28.40;18.00;;;0.30;99.90;;;;;;5096590;28;20044;-70
2021/12/27 05:09:45;;;;;;;28.58;17.50;;;0.30;99.90;;;;;;5096696;28;20078;-70
2021/12/27 05:12:10;;;;;;;27.23;17.70;;;0.20;99.90;;;;;;5096952;28;20044;-70
2021/12/27 05:14:36;;;;;;;26.70;17.38;;;0.30;99.90;;;;;;5096101;28;20035;-70
2021/12/27 05:17:02;;;;;;;25.02;17.33;;;0.40;99.90;;;;;;5096851;28;20123;-70
2021/12/27 05:19:27;;;;;;;27.52;16.63;;;0.30;99.90;;;;;;5096771;28;20411;-70
2021/12/27 05:21:53;;;;;;;25.58;17.15;;;0.30;99.90;;;;;;5096766;28;20040;-70
2021/12/27 05:24:20;;;;;;;30.48;18.25;;;0.40;99.90;;;;;;5096624;28;20047;-70
2021/12/27 05:26:46;;;;;;;30.48;18.67;;;0.40;99.90;;;;;;5096351;28;20044;-70
2021/12/27 05:29:11;;;;;;;30.00;17.85;;;0.40;99.90;;;;;;5096614;28;20040;-71
2021/12/27 05:31:37;;;;;;;26.95;16.75;;;0.40;99.90;;;;;;5096480;28;20036;-70
2021/12/27 05:34:03;;;;;;;33.42;19.13;;;0.40;99.90;;;;;;5096343;28;20119;-70
2021/12/27 05:36:29;;;;;;;27.40;18.50;;;0.40;99.90;;;;;;5095713;28;20545;-71
2021/12/27 05:38:54;;;;;;;30.63;18.08;;;0.40;99.90;;;;;;5095069;28;20048;-70
2021/12/27 05:41:20;;;;;;;30.02;18.45;;;0.40;99.90;;;;;;5094340;28;20040;-70
2021/12/27 05:43:46;;;;;;;26.98;18.27;;;0.40;99.90;;;;;;5095018;28;20089;-70
2021/12/27 05:46:11;;;;;;;30.63;18.73;;;0.40;99.90;;;;;;5094561;28;20111;-71
2021/12/27 05:48:37;;;;;;;34.67;18.90;;;0.50;99.90;;;;;;5094833;28;20034;-70
2021/12/27 05:51:03;;;;;;;31.08;18.50;;;0.50;99.90;;;;;;5093578;28;20546;-69
2021/12/27 05:53:28;;;;;;;29.40;18.08;;;0.40;99.90;;;;;;5094842;28;20501;-70
2021/12/27 05:55:54;;;;;;;32.58;19.38;;;0.40;99.90;;;;;;5093492;28;20535;-69
2021/12/27 05:58:19;;;;;;;30.48;19.00;;;0.60;99.90;;;;;;5095087;28;20392;-69
2021/12/27 06:00:45;;;;;;;28.58;17.48;;;0.50;99.90;;;;;;5097563;28;20077;-69
2021/12/27 06:03:11;;;;;;;30.88;17.42;;;0.50;99.90;;;;;;5104044;28;20036;-69
2021/12/27 06:05:36;;;;;;;30.23;19.13;;;0.50;99.90;;;;;;5103785;28;20066;-69
2021/12/27 06:08:02;;;;;;;33.97;18.98;;;0.60;99.90;;;;;;5093611;28;20167;-69
2021/12/27 06:10:28;;;;;;;30.70;19.08;;;0.50;99.90;;;;;;5094794;28;20127;-69
2021/12/27 06:12:54;;;;;;;35.72;19.73;;;0.50;99.90;;;;;;5095016;28;20074;-69
2021/12/27 06:15:19;;;;;;;31.88;19.00;;;0.50;99.90;;;;;;5094805;28;20063;-70
2021/12/27 06:17:45;;;;;;;34.45;20.63;;;0.50;99.90;;;;;;5092885;28;20040;-69
2021/12/27 06:20:14;;;;;;;29.17;17.90;;;0.60;99.90;;;;;;5094502;28;20039;-69
2021/12/27 06:22:43;;;;;;;33.15;20.10;;;0.60;99.90;;;;;;5093310;28;20048;-69
2021/12/27 06:25:09;;;;;;;31.10;19.70;;;0.60;99.90;;;;;;5098494;28;20428;-70
2021/12/27 06:27:35;;;;;;;31.75;19.05;;;0.60;99.90;;;;;;5097055;28;20078;-70
2021/12/27 06:30:02;;;;;;;30.35;18.60;;;0.50;99.90;;;;;;5093505;28;20071;-69
2021/12/27 06:32:27;;;;;;;32.38;19.88;;;0.50;99.90;;;;;;5094623;28;20470;-69
2021/12/27 06:34:53;;;;;;;34.80;19.77;;;0.60;99.90;;;;;;5094068;28;20115;-69
2021/12/27 06:37:19;;;;;;;35.78;19.65;;;0.60;99.90;;;;;;5056121;28;1042072;-70
2021/12/27 06:39:45;;;;;;;32.28;19.55;;;0.50;99.90;;;;;;5095363;28;20048;-69
2021/12/27 06:42:11;;;;;;;32.03;19.50;;;0.60;99.90;;;;;;5093912;28;20055;-70
2021/12/27 06:44:36;;;;;;;34.65;20.23;;;0.60;99.90;;;;;;5093979;28;20044;-69
2021/12/27 06:47:02;;;;;;;32.78;19.58;;;0.60;99.90;;;;;;5094567;28;20072;-69
2021/12/27 06:49:28;;;;;;;35.40;21.58;;;0.60;99.90;;;;;;5095205;28;20051;-69
2021/12/27 06:51:54;;;;;;;38.58;20.52;;;0.60;99.90;;;;;;5094913;28;20383;-69
2021/12/27 06:54:20;;;;;;;36.75;22.90;;;0.60;99.90;;;;;;5094924;28;20043;-70
2021/12/27 06:56:46;;;;;;;39.88;22.92;;;0.60;99.90;;;;;;5094721;28;20032;-69
2021/12/27 06:59:13;;;;;;;39.70;21.60;;;0.60;99.90;;;;;;5093658;28;20047;-70
2021/12/27 07:01:38;;;;;;;39.28;21.67;;;0.50;99.90;;;;;;5094776;28;20040;-70
2021/12/27 07:04:04;;;;;;;32.17;20.42;;;0.50;99.90;;;;;;5093645;28;20042;-70
2021/12/27 07:06:30;;;;;;;39.38;22.67;;;0.50;99.90;;;;;;5094309;28;20480;-69
2021/12/27 07:08:56;;;;;;;38.45;21.67;;;0.50;99.90;;;;;;5094223;28;20032;-70
2021/12/27 07:11:23;;;;;;;35.55;20.13;;;0.50;99.90;;;;;;5094611;28;20535;-70
2021/12/27 07:13:48;;;;;;;34.08;20.27;;;0.50;99.90;;;;;;5094961;28;20162;-70
2021/12/27 07:16:14;;;;;;;33.50;20.67;;;0.50;99.90;;;;;;5093532;28;20126;-69
2021/12/27 07:18:39;;;;;;;34.97;20.60;;;0.50;99.90;;;;;;5093820;28;20028;-70
2021/12/27 07:21:05;;;;;;;46.50;25.60;;;0.50;99.90;;;;;;5094502;28;20499;-70
2021/12/27 07:23:31;;;;;;;33.83;21.98;;;0.60;99.90;;;;;;5094435;28;20391;-70
2021/12/27 07:25:56;;;;;;;38.17;21.48;;;0.60;99.90;;;;;;5092684;28;20123;-70
2021/12/27 07:28:22;;;;;;;36.00;20.50;;;0.60;99.90;;;;;;5094685;28;20345;-69
2021/12/27 07:30:48;;;;;;;35.17;22.08;;;0.60;99.90;;;;;;5092993;28;20054;-70
2021/12/27 07:33:13;;;;;;;32.53;21.08;;;0.60;99.90;;;;;;5094069;28;20040;-70
2021/12/27 07:35:39;;;;;;;37.75;21.42;;;0.60;99.90;;;;;;5093769;28;20059;-70
2021/12/27 07:38:05;;;;;;;36.78;22.08;;;0.70;99.90;;;;;;5094033;28;20135;-70
2021/12/27 07:40:31;;;;;;;35.20;22.25;;;0.60;99.90;;;;;;5092814;28;20446;-69
2021/12/27 07:42:57;;;;;;;39.17;22.15;;;0.60;99.90;;;;;;5094005;28;20054;-70
2021/12/27 07:45:22;;;;;;;35.10;21.85;;;0.60;99.90;;;;;;5093807;28;20028;-70
2021/12/27 07:47:48;;;;;;;35.45;21.77;;;0.60;99.90;;;;;;5091987;28;20036;-70
2021/12/27 07:50:14;;;;;;;37.97;21.95;;;0.60;99.90;;;;;;5075600;28;20360;-70
2021/12/27 07:52:39;;;;;;;37.97;21.10;;;0.60;99.90;;;;;;5092579;28;20086;-70
2021/12/27 07:55:06;;;;;;;33.83;20.55;;;0.60;99.90;;;;;;5092452;28;20040;-70
2021/12/27 07:57:31;;;;;;;40.45;23.65;;;0.70;99.90;;;;;;5093338;28;20071;-69
2021/12/27 07:59:57;;;;;;;39.38;22.10;;;0.70;99.90;;;;;;5093043;28;20068;-69
2021/12/27 08:02:22;;;;;;;35.38;22.50;;;0.70;99.90;;;;;;5094120;28;20123;-70
2021/12/27 08:04:48;;;;;;;39.97;23.25;;;0.60;99.90;;;;;;5075539;28;20040;-70
2021/12/27 08:07:14;;;;;;;39.38;22.10;;;0.70;99.90;;;;;;5093296;28;20040;-70
2021/12/27 08:09:39;;;;;;;49.00;23.17;;;0.70;99.90;;;;;;5092847;28;20031;-70
2021/12/27 08:12:09;;;;;;;38.50;22.27;;;0.70;99.90;;;;;;5092397;28;20040;-70
2021/12/27 08:14:35;;;;;;;41.70;23.25;;;0.70;99.90;;;;;;5093647;28;20399;-70
2021/12/27 08:17:00;;;;;;;47.80;24.08;;;0.70;99.90;;;;;;5091864;28;20048;-70
2021/12/27 08:19:26;;;;;;;41.63;24.27;;;0.70;99.90;;;;;;5093641;28;20047;-69
2021/12/27 08:21:52;;;;;;;48.13;26.35;;;0.70;99.90;;;;;;5093482;28;20115;-70
2021/12/27 08:24:17;;;;;;;47.63;24.83;;;0.70;99.90;;;;;;5093345;28;20046;-70
2021/12/27 08:26:44;;;;;;;44.08;25.13;;;0.70;99.90;;;;;;5092910;28;20035;-70
2021/12/27 08:29:10;;;;;;;50.25;26.33;;;0.70;99.90;;;;;;5093504;28;20115;-70
2021/12/27 08:31:36;;;;;;;50.10;25.67;;;0.70;99.90;;;;;;5092044;28;20044;-69
2021/12/27 08:34:02;;;;;;;46.60;24.90;;;0.70;99.90;;;;;;5093866;28;20391;-70
2021/12/27 08:36:28;;;;;;;44.63;24.98;;;0.70;99.90;;;;;;5093302;28;20040;-70
2021/12/27 08:38:54;;;;;;;45.80;25.30;;;0.70;99.90;;;;;;5093780;28;20089;-70
2021/12/27 08:41:20;;;;;;;43.40;23.30;;;0.70;99.90;;;;;;5093342;28;20032;-70
2021/12/27 08:43:46;;;;;;;52.47;28.45;;;0.80;99.90;;;;;;5093344;28;20437;-70
2021/12/27 08:46:12;;;;;;;46.90;25.15;;;0.80;99.90;;;;;;5092870;28;20097;-70
2021/12/27 08:48:40;;;;;;;45.25;24.98;;;0.80;99.90;;;;;;5091773;28;20075;-69
2021/12/27 08:51:06;;;;;;;44.10;24.45;;;0.80;99.90;;;;;;5093362;28;20040;-70
2021/12/27 08:53:31;;;;;;;42.08;23.98;;;0.80;99.90;;;;;;5092305;28;20047;-70
2021/12/27 08:55:57;;;;;;;43.70;25.67;;;0.90;99.90;;;;;;5093157;28;20032;-69
2021/12/27 08:58:23;;;;;;;42.28;24.08;;;0.90;99.90;;;;;;5092919;28;20043;-69
2021/12/27 09:00:48;;;;;;;46.45;24.05;;;0.90;99.90;;;;;;5093612;28;20032;-69
2021/12/27 09:03:14;;;;;;;44.42;23.10;;;0.90;99.90;;;;;;5092963;28;20105;-69
2021/12/27 09:05:41;;;;;;;41.83;22.65;;;1.00;99.90;;;;;;5091580;28;20044;-69
2021/12/27 09:08:08;;;;;;;43.28;24.30;;;1.00;99.90;;;;;;5091979;28;20118;-69
2021/12/27 09:10:33;;;;;;;42.05;24.60;;;1.10;99.90;;;;;;5093057;28;20443;-69
2021/12/27 09:13:00;;;;;;;44.38;22.70;;;1.10;99.90;;;;;;5093060;28;20040;-70
2021/12/27 09:15:27;;;;;;;47.70;23.73;;;1.10;99.90;;;;;;5092873;28;20480;-70
2021/12/27 09:17:53;;;;;;;43.35;24.13;;;1.20;99.90;;;;;;5091631;28;20100;-70
2021/12/27 09:20:18;;;;;;;50.33;24.77;;;1.20;99.90;;;;;;5093007;28;20418;-69
2021/12/27 09:22:44;;;;;;;48.05;23.60;;;1.10;99.90;;;;;;5093077;28;20040;-69
2021/12/27 09:25:10;;;;;;;53.25;25.38;;;1.10;99.90;;;;;;5092801;28;20078;-69
2021/12/27 09:27:35;;;;;;;49.45;24.85;;;1.10;99.90;;;;;;5092557;28;20506;-69
2021/12/27 09:30:01;;;;;;;51.25;25.83;;;1.10;99.90;;;;;;5091675;28;20061;-69
2021/12/27 09:32:27;;;;;;;46.80;24.40;;;1.10;99.90;;;;;;5096591;28;20482;-69
2021/12/27 09:34:53;;;;;;;45.92;24.48;;;1.10;99.90;;;;;;5078263;28;20047;-69
2021/12/27 09:37:19;;;;;;;55.38;26.70;;;1.10;99.90;;;;;;5096141;28;20450;-69
2021/12/27 09:39:53;;;;;;;54.03;26.13;;;1.10;99.90;;;;;;5095601;28;20380;-69
2021/12/27 09:42:26;;;;;;;50.28;26.42;;;1.10;99.90;;;;;;5096306;28;20039;-69
2021/12/27 09:44:54;;;;;;;56.10;29.05;;;1.10;99.90;;;;;;5095205;28;20071;-69
2021/12/27 09:47:20;;;;;;;49.78;25.70;;;1.10;99.90;;;;;;5094486;28;20048;-69
2021/12/27 09:49:47;;;;;;;63.42;29.50;;;1.10;99.90;;;;;;5096590;28;20031;-69
2021/12/27 09:52:13;;;;;;;52.15;26.95;;;1.10;99.90;;;;;;5094821;28;20050;-69
2021/12/27 09:54:39;;;;;;;62.78;29.55;;;1.10;99.90;;;;;;5096122;28;20040;-69
2021/12/27 09:57:06;;;;;;;53.50;28.60;;;1.20;99.90;;;;;;5095686;28;20036;-69
2021/12/27 09:59:31;;;;;;;60.67;29.40;;;1.20;99.90;;;;;;5094982;28;20082;-69
2021/12/27 10:01:57;;;;;;;52.80;28.00;;;1.10;99.90;;;;;;5096329;28;20406;-69
2021/12/27 10:04:23;;;;;;;53.63;27.48;;;1.20;99.90;;;;;;5095924;28;20040;-70
2021/12/27 10:06:49;;;;;;;60.78;29.48;;;1.20;99.90;;;;;;5094173;28;20036;-70
2021/12/27 10:09:15;;;;;;;56.38;28.70;;;1.20;99.90;;;;;;5096309;28;20040;-70
2021/12/27 10:11:43;;;;;;;59.60;28.52;;;1.20;99.90;;;;;;5095944;28;20396;-70
2021/12/27 10:14:10;;;;;;;69.22;29.70;;;1.20;99.90;;;;;;5095917;28;20036;-69
2021/12/27 10:16:40;;;;;;;56.25;28.05;;;1.20;99.90;;;;;;5095691;28;20071;-70
2021/12/27 10:19:08;;;;;;;63.47;30.23;;;1.30;99.90;;;;;;5096058;28;20040;-70
2021/12/27 10:21:34;;;;;;;58.60;27.63;;;1.30;99.90;;;;;;5095596;28;20051;-69
2021/12/27 10:24:29;;;;;;;58.53;28.85;;;1.20;99.90;;;;;;5095530;28;20036;-69
2021/12/27 10:26:59;;;;;;;66.22;30.10;;;1.30;99.90;;;;;;5092884;28;20052;-69
2021/12/27 10:29:28;;;;;;;64.53;30.60;;;1.30;99.90;;;;;;5096127;28;20067;-69
2021/12/27 10:32:09;;;;;;;63.63;32.10;;;1.40;99.90;;;;;;5095465;28;20458;-69
2021/12/27 10:34:45;;;;;;;74.50;31.67;;;1.40;99.90;;;;;;5094522;28;20054;-69
2021/12/27 10:37:28;;;;;;;69.35;30.73;;;1.40;99.90;;;;;;5094698;28;20048;-69
2021/12/27 10:40:06;;;;;;;71.45;31.45;;;1.40;99.90;;;;;;5095277;28;20097;-69
2021/12/27 10:42:44;;;;;;;67.93;31.77;;;1.40;99.90;;;;;;5094278;28;20043;-71
2021/12/27 10:45:16;;;;;;;68.15;31.15;;;1.40;99.90;;;;;;5094118;28;20032;-69
2021/12/27 10:47:45;;;;;;;68.10;31.05;;;1.50;99.90;;;;;;5094964;28;20048;-69
2021/12/27 10:50:26;;;;;;;64.60;29.77;;;1.50;99.90;;;;;;5095082;28;20040;-69
2021/12/27 10:53:03;;;;;;;75.35;32.80;;;1.50;99.90;;;;;;5095395;28;20043;-69
2021/12/27 10:55:35;;;;;;;68.15;31.60;;;1.50;99.90;;;;;;5094863;28;20111;-69
2021/12/27 10:58:26;;;;;;;72.38;32.05;;;1.60;99.90;;;;;;5093759;28;20066;-70
2021/12/27 11:00:58;;;;;;;75.90;32.25;;;1.70;99.90;;;;;;5094960;28;20109;-69
2021/12/27 11:03:26;;;;;;;71.85;31.90;;;1.70;99.90;;;;;;5094987;28;20400;-70
2021/12/27 11:05:52;;;;;;;81.82;32.88;;;1.70;99.90;;;;;;5093226;28;20075;-70
2021/12/27 11:08:18;;;;;;;84.63;34.05;;;1.70;99.90;;;;;;5094794;28;20032;-70
2021/12/27 11:10:43;;;;;;;77.72;33.10;;;1.70;99.90;;;;;;5094766;28;20039;-70
2021/12/27 11:13:09;;;;;;;76.10;31.73;;;1.80;99.90;;;;;;5094681;28;20438;-70
2021/12/27 11:15:36;;;;;;;76.80;31.42;;;1.80;99.90;;;;;;5093908;28;20128;-71
2021/12/27 11:18:04;;;;;;;73.35;31.88;;;1.90;99.90;;;;;;5094801;28;20047;-71
2021/12/27 11:20:30;;;;;;;78.30;33.60;;;2.00;99.90;;;;;;5094622;28;20040;-69
2021/12/27 11:23:00;;;;;;;77.43;34.72;;;2.10;99.90;;;;;;5094107;28;20090;-71
2021/12/27 11:25:48;;;;;;;74.22;31.17;;;2.10;99.90;;;;;;5099742;28;20043;-71
2021/12/27 11:28:30;;;;;;;72.22;31.20;;;2.10;99.90;;;;;;5093750;28;20052;-71
2021/12/27 11:30:57;;;;;;;81.82;32.42;;;2.30;99.90;;;;;;5093420;28;20040;-70
2021/12/27 11:33:24;;;;;;;83.30;32.03;;;2.30;99.90;;;;;;5094415;28;20089;-70
2021/12/27 11:36:04;;;;;;;78.13;32.45;;;2.30;99.90;;;;;;5093912;28;20050;-70
2021/12/27 11:38:32;;;;;;;85.95;34.45;;;2.20;99.90;;;;;;5092951;28;20048;-70
2021/12/27 11:41:00;;;;;;;87.32;34.00;;;2.30;99.90;;;;;;5094326;28;20472;-70
2021/12/27 11:43:51;;;;;;;82.00;34.83;;;2.30;99.90;;;;;;5092777;28;20050;-70
2021/12/27 11:46:17;;;;;;;69.63;32.15;;;2.30;99.90;;;;;;5092294;28;20055;-71
2021/12/27 11:48:51;;;;;;;82.88;34.25;;;2.40;99.90;;;;;;5094305;28;20122;-71
2021/12/27 11:51:27;;;;;;;71.90;31.95;;;2.40;99.90;;;;;;5093776;28;20075;-71
2021/12/27 11:53:55;;;;;;;81.75;32.92;;;2.40;99.90;;;;;;5092359;28;20040;-71
2021/12/27 11:56:44;;;;;;;73.55;31.42;;;2.40;99.90;;;;;;5093646;28;20032;-70
2021/12/27 11:59:22;;;;;;;79.97;33.45;;;2.40;99.90;;;;;;5092528;28;20094;-71
2021/12/27 12:01:50;;;;;;;89.15;32.70;;;2.40;99.90;;;;;;5093808;28;20040;-70
2021/12/27 12:04:45;;;;;;;69.95;31.92;;;2.40;99.90;;;;;;5093613;28;20647;-70
2021/12/27 12:07:33;;;;;;;76.50;31.92;;;2.50;99.90;;;;;;5093515;28;20040;-70
2021/12/27 12:10:05;;;;;;;74.10;31.33;;;2.40;99.90;;;;;;5092149;28;20043;-69
2021/12/27 12:12:33;;;;;;;70.45;31.77;;;2.40;99.90;;;;;;5094028;28;20120;-69
2021/12/27 12:15:00;;;;;;;71.82;30.90;;;2.40;99.90;;;;;;5093549;28;20035;-70
2021/12/27 12:17:44;;;;;;;88.20;34.67;;;2.40;99.90;;;;;;5093503;28;20047;-70
2021/12/27 12:20:24;;;;;;;77.70;31.75;;;2.40;99.90;;;;;;5093740;28;20040;-70
2021/12/27 12:22:59;;;;;;;79.30;32.55;;;2.40;99.90;;;;;;5093772;28;20496;-70
2021/12/27 12:25:25;;;;;;;82.78;32.42;;;2.40;99.90;;;;;;5093739;28;20085;-70
2021/12/27 12:27:58;;;;;;;79.15;34.55;;;2.40;99.90;;;;;;5091900;28;20048;-70
2021/12/27 12:30:32;;;;;;;72.15;30.48;;;2.40;99.90;;;;;;5093995;28;20043;-70
2021/12/27 12:33:13;;;;;;;83.00;32.72;;;2.50;99.90;;;;;;5092377;28;20035;-71
2021/12/27 12:35:43;;;;;;;81.35;33.08;;;2.50;99.90;;;;;;5093092;28;20051;-71
2021/12/27 12:38:14;;;;;;;88.40;32.03;;;2.50;99.90;;;;;;5093139;28;20044;-70